Terminal Aerodrome Forecast
Issued by NWS North Platte, NE

Home | Current Version | Previous Version | Text Only | Print | Product List | Glossary Off
Versions: 1 2 3 4 5 6 7 8 9 10 11 12 13 14 15 16 17 18 19 20

000
FTUS43 KLBF 291725
TAFVTN
TAF
KVTN 291725Z 2918/3018 02010KT P6SM BKN015 BKN060
     FM292100 05011KT P6SM BKN040
     FM300100 06008KT P6SM SCT060
     FM300500 08004KT P6SM SCT150
     FM301000 VRB03KT 3SM BR SCT020
     FM301200 VRB03KT 1SM BR SCT010
     FM301500 09004KT P6SM SCT030=

USA.gov is the U.S. government's official web portal to all federal, state and local government web resources and services.